createdAt,value
2023-05-09T00:00:14.790Z,17.31
2023-05-09T00:00:26.699Z,17.32
2023-05-09T00:00:39.731Z,17.32
2023-05-09T00:00:51.790Z,17.33
2023-05-09T00:01:11.057Z,17.31
2023-05-09T00:01:22.998Z,17.31
2023-05-09T00:01:35.284Z,17.30
2023-05-09T00:01:47.207Z,17.30
2023-05-09T00:01:59.249Z,17.26
2023-05-09T00:02:11.436Z,17.28
2023-05-09T00:02:23.651Z,17.27
2023-05-09T00:02:36.231Z,17.27
2023-05-09T00:02:48.488Z,17.27
2023-05-09T00:03:00.704Z,17.27
2023-05-09T00:03:14.306Z,17.26
2023-05-09T00:03:26.982Z,17.23
2023-05-09T00:03:39.631Z,17.24
2023-05-09T00:03:51.709Z,17.25
2023-05-09T00:04:05.035Z,17.25
2023-05-09T00:04:17.041Z,17.23
2023-05-09T00:04:30.145Z,17.24
2023-05-09T00:04:42.399Z,17.20
2023-05-09T00:04:54.416Z,17.22
2023-05-09T00:05:08.035Z,17.23
2023-05-09T00:05:21.691Z,17.22
2023-05-09T00:05:33.657Z,17.23
2023-05-09T00:05:46.132Z,17.23
2023-05-09T00:05:58.065Z,17.22
2023-05-09T00:06:11.511Z,17.23
2023-05-09T00:06:23.417Z,17.23
2023-05-09T00:06:35.413Z,17.22
2023-05-09T00:06:47.360Z,17.22
2023-05-09T00:06:59.468Z,17.20
2023-05-09T00:07:11.360Z,17.21
2023-05-09T00:07:23.256Z,17.20
2023-05-09T00:07:35.262Z,17.19
2023-05-09T00:07:48.172Z,17.16
2023-05-09T00:08:00.235Z,17.17
2023-05-09T00:08:12.333Z,17.17
2023-05-09T00:08:24.212Z,17.17
2023-05-09T00:08:36.298Z,17.17
2023-05-09T00:08:48.526Z,17.16
2023-05-09T00:09:00.434Z,17.16
2023-05-09T00:09:12.738Z,17.17
2023-05-09T00:09:25.875Z,17.15
2023-05-09T00:09:37.815Z,17.14
2023-05-09T00:09:49.705Z,17.15
2023-05-09T00:10:01.709Z,17.13
2023-05-09T00:10:14.169Z,17.14
2023-05-09T00:10:27.396Z,17.14
2023-05-09T00:10:39.568Z,17.13
2023-05-09T00:10:52.146Z,17.13
2023-05-09T00:11:04.124Z,17.15
2023-05-09T00:11:16.110Z,17.13
2023-05-09T00:11:30.460Z,17.14
2023-05-09T00:11:42.464Z,17.14
2023-05-09T00:11:54.471Z,17.15
2023-05-09T00:12:06.684Z,17.15
2023-05-09T00:12:18.584Z,17.14
2023-05-09T00:12:30.972Z,17.14
2023-05-09T00:12:43.722Z,17.13
2023-05-09T00:12:57.377Z,17.13
2023-05-09T00:13:09.396Z,17.13
2023-05-09T00:13:21.443Z,17.12
2023-05-09T00:13:34.657Z,17.11
2023-05-09T00:13:49.091Z,17.10
2023-05-09T00:14:02.434Z,17.11
2023-05-09T00:14:14.390Z,17.09
2023-05-09T00:14:27.324Z,17.08
2023-05-09T00:14:40.964Z,17.09
2023-05-09T00:14:54.242Z,17.09
2023-05-09T00:15:08.260Z,17.08
2023-05-09T00:15:20.307Z,17.10
2023-05-09T00:15:32.280Z,17.10
2023-05-09T00:15:44.826Z,17.08
2023-05-09T00:15:59.419Z,17.09
2023-05-09T00:16:11.424Z,17.10
2023-05-09T00:16:24.118Z,17.09
2023-05-09T00:16:36.750Z,17.06
2023-05-09T00:16:49.204Z,17.08
2023-05-09T00:17:01.194Z,17.09
2023-05-09T00:17:14.443Z,17.09
2023-05-09T00:17:28.583Z,17.09
2023-05-09T00:17:40.690Z,17.09
2023-05-09T00:17:52.978Z,17.07
2023-05-09T00:18:05.175Z,17.08
2023-05-09T00:18:18.003Z,17.07
2023-05-09T00:18:30.921Z,17.09
2023-05-09T00:18:44.031Z,17.08
2023-05-09T00:18:57.906Z,17.07
2023-05-09T00:19:09.904Z,17.07
2023-05-09T00:19:21.891Z,17.07
2023-05-09T00:19:34.092Z,17.06
2023-05-09T00:19:46.009Z,17.07
2023-05-09T00:19:57.895Z,17.08
2023-05-09T00:20:12.241Z,17.07
2023-05-09T00:20:24.481Z,17.06
2023-05-09T00:20:37.493Z,17.05
2023-05-09T00:20:50.608Z,17.04
2023-05-09T00:21:03.953Z,17.05
2023-05-09T00:21:15.850Z,17.03
2023-05-09T00:21:28.230Z,17.03
2023-05-09T00:21:40.175Z,17.03
2023-05-09T00:21:52.191Z,17.02
2023-05-09T00:22:04.108Z,17.02
2023-05-09T00:22:21.468Z,17.01
2023-05-09T00:22:33.360Z,17.01
2023-05-09T00:22:45.314Z,16.97
2023-05-09T00:22:57.201Z,16.99
2023-05-09T00:23:09.713Z,16.98
2023-05-09T00:23:21.664Z,16.97
2023-05-09T00:23:33.561Z,16.97
2023-05-09T00:23:47.005Z,16.96
2023-05-09T00:24:00.266Z,16.98
2023-05-09T00:24:12.178Z,16.96
2023-05-09T00:24:24.152Z,16.96
2023-05-09T00:24:36.064Z,16.96
2023-05-09T00:24:48.674Z,16.96
2023-05-09T00:25:00.832Z,16.95
2023-05-09T00:25:12.978Z,16.95
2023-05-09T00:25:25.436Z,16.94
2023-05-09T00:25:37.364Z,16.95
2023-05-09T00:25:49.328Z,16.95
2023-05-09T00:26:01.450Z,16.94
2023-05-09T00:26:13.382Z,16.93
2023-05-09T00:26:26.211Z,16.94
2023-05-09T00:26:38.139Z,16.94
2023-05-09T00:26:50.049Z,16.93
2023-05-09T00:27:01.948Z,16.94
2023-05-09T00:27:14.240Z,16.92
2023-05-09T00:27:27.268Z,16.93
2023-05-09T00:27:39.183Z,16.93
2023-05-09T00:27:51.184Z,16.90
2023-05-09T00:28:03.312Z,16.91
2023-05-09T00:28:15.289Z,16.91
2023-05-09T00:28:27.486Z,16.88
2023-05-09T00:28:39.409Z,16.85
2023-05-09T00:28:51.396Z,16.82
2023-05-09T00:29:03.438Z,16.82
2023-05-09T00:29:15.458Z,16.83
2023-05-09T00:29:27.401Z,16.73
2023-05-09T00:29:39.390Z,16.77
2023-05-09T00:29:51.334Z,16.78
2023-05-09T00:30:04.920Z,16.76
2023-05-09T00:30:16.969Z,16.73
2023-05-09T00:30:28.883Z,16.74
2023-05-09T00:30:40.836Z,16.72
2023-05-09T00:30:53.060Z,16.70
2023-05-09T00:31:05.619Z,16.70
2023-05-09T00:31:17.614Z,16.71
2023-05-09T00:31:29.560Z,16.72
2023-05-09T00:31:41.491Z,16.70
2023-05-09T00:31:53.500Z,16.71
2023-05-09T00:32:05.647Z,16.71
2023-05-09T00:32:17.636Z,16.70
2023-05-09T00:32:29.857Z,16.69
2023-05-09T00:32:41.905Z,16.70
2023-05-09T00:32:53.986Z,16.70
2023-05-09T00:33:06.247Z,16.70
2023-05-09T00:33:19.368Z,16.71
2023-05-09T00:33:31.351Z,16.73
2023-05-09T00:33:43.269Z,16.71
2023-05-09T00:33:55.207Z,16.71
2023-05-09T00:34:07.134Z,16.71
2023-05-09T00:34:19.074Z,16.73
2023-05-09T00:34:31.007Z,16.73
2023-05-09T00:34:44.022Z,16.73
2023-05-09T00:34:56.147Z,16.72
2023-05-09T00:35:09.028Z,16.73
2023-05-09T00:35:21.066Z,16.72
2023-05-09T00:35:33.018Z,16.70
2023-05-09T00:35:44.913Z,16.70
2023-05-09T00:35:56.847Z,16.68
2023-05-09T00:36:08.869Z,16.68
2023-05-09T00:36:21.254Z,16.66
2023-05-09T00:36:34.101Z,16.64
2023-05-09T00:36:46.046Z,16.64
2023-05-09T00:36:57.947Z,16.66
2023-05-09T00:37:09.954Z,16.64
2023-05-09T00:37:21.989Z,16.65
2023-05-09T00:37:33.940Z,16.65
2023-05-09T00:37:45.940Z,16.64
2023-05-09T00:37:57.881Z,16.63
2023-05-09T00:38:09.917Z,16.64
2023-05-09T00:38:24.834Z,16.65
2023-05-09T00:38:36.783Z,16.65
2023-05-09T00:38:49.856Z,16.65
2023-05-09T00:39:01.749Z,16.67
2023-05-09T00:39:13.701Z,16.66
2023-05-09T00:39:25.602Z,16.67
2023-05-09T00:39:38.883Z,16.68
2023-05-09T00:39:50.785Z,16.64
2023-05-09T00:40:04.168Z,16.64
2023-05-09T00:40:16.103Z,16.64
2023-05-09T00:40:28.032Z,16.66
2023-05-09T00:40:40.232Z,16.66
2023-05-09T00:40:53.270Z,16.63
2023-05-09T00:41:05.274Z,16.60
2023-05-09T00:41:17.300Z,16.56
2023-05-09T00:41:29.254Z,16.56
2023-05-09T00:41:41.162Z,16.54
2023-05-09T00:41:53.194Z,16.52
2023-05-09T00:42:05.202Z,16.51
2023-05-09T00:42:18.250Z,16.53
2023-05-09T00:42:30.158Z,16.53
2023-05-09T00:42:42.113Z,16.53
2023-05-09T00:42:58.807Z,16.53
2023-05-09T00:43:10.802Z,16.53
2023-05-09T00:43:22.720Z,16.52
2023-05-09T00:43:34.761Z,16.52
2023-05-09T00:43:46.749Z,16.51
2023-05-09T00:43:58.677Z,16.51
2023-05-09T00:44:10.567Z,16.52
2023-05-09T00:44:34.631Z,16.56
2023-05-09T00:44:46.553Z,16.57
2023-05-09T00:44:58.620Z,16.57
2023-05-09T00:45:11.534Z,16.59
2023-05-09T00:45:24.021Z,16.60
2023-05-09T00:45:36.027Z,16.59
2023-05-09T00:45:48.369Z,16.59
2023-05-09T00:46:00.444Z,16.61
2023-05-09T00:46:12.547Z,16.63
2023-05-09T00:46:25.459Z,16.62
2023-05-09T00:46:38.605Z,16.56
2023-05-09T00:46:50.593Z,16.55
2023-05-09T00:47:02.561Z,16.55
2023-05-09T00:47:14.547Z,16.54
2023-05-09T00:47:27.997Z,16.53
2023-05-09T00:47:40.110Z,16.55
2023-05-09T00:47:52.403Z,16.55
2023-05-09T00:48:04.930Z,16.53
2023-05-09T00:48:18.349Z,16.53
2023-05-09T00:48:30.360Z,16.54
2023-05-09T00:48:46.518Z,16.55
2023-05-09T00:48:58.691Z,16.56
2023-05-09T00:49:12.294Z,16.60
2023-05-09T00:49:24.248Z,16.60
2023-05-09T00:49:36.493Z,16.62
2023-05-09T00:49:48.493Z,16.63
2023-05-09T00:50:01.626Z,16.64
2023-05-09T00:50:13.821Z,16.65
2023-05-09T00:50:25.818Z,16.64
2023-05-09T00:50:37.786Z,16.63
2023-05-09T00:50:53.034Z,16.62
2023-05-09T00:51:05.264Z,16.65
2023-05-09T00:51:17.956Z,16.65
2023-05-09T00:51:30.929Z,16.64
2023-05-09T00:51:42.968Z,16.66
2023-05-09T00:51:55.927Z,16.65
2023-05-09T00:52:07.893Z,16.62
2023-05-09T00:52:23.313Z,16.61
2023-05-09T00:52:36.277Z,16.61
2023-05-09T00:53:01.084Z,16.61
2023-05-09T00:53:13.378Z,16.59
2023-05-09T00:53:25.386Z,16.60
2023-05-09T00:53:37.351Z,16.62
2023-05-09T00:53:50.617Z,16.63
2023-05-09T00:54:02.693Z,16.64
2023-05-09T00:54:14.719Z,16.64
2023-05-09T00:54:26.814Z,16.67
2023-05-09T00:54:38.966Z,16.69
2023-05-09T00:54:52.767Z,16.68
2023-05-09T00:55:08.984Z,16.67
2023-05-09T00:55:21.034Z,16.71
2023-05-09T00:55:33.407Z,16.72
2023-05-09T00:55:45.536Z,16.73
2023-05-09T00:55:58.248Z,16.76
2023-05-09T00:56:11.911Z,16.77
2023-05-09T00:56:23.994Z,16.76
2023-05-09T00:56:35.988Z,16.75
2023-05-09T00:56:48.135Z,16.77
2023-05-09T00:57:00.728Z,16.78
2023-05-09T00:57:12.670Z,16.77
2023-05-09T00:57:24.683Z,16.77
2023-05-09T00:57:37.154Z,16.78
2023-05-09T00:57:49.155Z,16.78
2023-05-09T00:58:02.664Z,16.80
2023-05-09T00:58:15.025Z,16.82
2023-05-09T00:58:27.232Z,16.82
2023-05-09T00:58:39.140Z,16.81
2023-05-09T00:58:51.669Z,16.82
2023-05-09T00:59:03.812Z,16.83
2023-05-09T00:59:17.975Z,16.82
2023-05-09T00:59:30.193Z,16.82
2023-05-09T00:59:42.247Z,16.81
2023-05-09T00:59:54.222Z,16.81
2023-05-09T01:00:07.022Z,16.81
2023-05-09T01:00:20.108Z,16.81
2023-05-09T01:00:32.221Z,16.81
2023-05-09T01:00:44.119Z,16.79
2023-05-09T01:00:56.393Z,16.77
2023-05-09T01:01:08.706Z,16.76
2023-05-09T01:01:21.257Z,16.77
2023-05-09T01:01:33.487Z,16.76
2023-05-09T01:01:46.170Z,16.75
2023-05-09T01:01:58.290Z,16.74
2023-05-09T01:02:12.574Z,16.74
2023-05-09T01:02:24.647Z,16.72
2023-05-09T01:02:37.363Z,16.73
2023-05-09T01:02:54.094Z,16.72
2023-05-09T01:03:06.721Z,16.71
2023-05-09T01:03:18.909Z,16.71
2023-05-09T01:03:32.110Z,16.70
2023-05-09T01:03:45.538Z,16.70
2023-05-09T01:03:58.299Z,16.70
2023-05-09T01:04:11.137Z,16.71
2023-05-09T01:04:23.658Z,16.70
2023-05-09T01:04:35.974Z,16.70
2023-05-09T01:04:48.451Z,16.69
2023-05-09T01:05:00.423Z,16.68
2023-05-09T01:05:14.366Z,16.67
2023-05-09T01:05:34.939Z,16.67
2023-05-09T01:06:02.813Z,16.66
2023-05-09T01:06:22.836Z,16.63
2023-05-09T01:06:55.254Z,16.60
2023-05-09T01:07:30.264Z,16.57
2023-05-09T01:08:07.821Z,16.50
2023-05-09T01:08:33.696Z,16.52
2023-05-09T01:08:59.587Z,16.51
2023-05-09T01:09:32.388Z,16.49
2023-05-09T01:09:47.563Z,16.45
2023-05-09T01:10:15.951Z,16.44
2023-05-09T01:10:43.658Z,16.43
2023-05-09T01:11:17.131Z,16.49
2023-05-09T01:11:36.308Z,16.54
2023-05-09T01:12:12.379Z,16.60
2023-05-09T01:12:49.592Z,16.61
2023-05-09T01:13:20.806Z,16.59
2023-05-09T01:13:52.416Z,16.52
2023-05-09T01:14:28.245Z,16.60
2023-05-09T01:15:14.288Z,16.67
2023-05-09T01:15:51.599Z,16.69
2023-05-09T01:16:15.448Z,16.69
2023-05-09T01:16:58.907Z,16.72
2023-05-09T01:17:18.029Z,16.71
2023-05-09T01:17:50.206Z,16.74
2023-05-09T01:18:16.197Z,16.75
2023-05-09T01:18:37.975Z,16.72
2023-05-09T01:19:12.300Z,16.71
2023-05-09T01:19:46.006Z,16.73
2023-05-09T01:20:24.194Z,16.74
2023-05-09T01:20:45.464Z,16.76
2023-05-09T01:21:08.898Z,16.66
2023-05-09T01:21:26.962Z,16.65
2023-05-09T01:21:43.869Z,16.65
2023-05-09T01:21:57.053Z,16.65
2023-05-09T01:22:12.064Z,16.68
2023-05-09T01:22:30.304Z,16.71
2023-05-09T01:22:55.276Z,16.71
2023-05-09T01:23:33.207Z,16.76
2023-05-09T01:23:45.199Z,16.78
2023-05-09T01:24:10.007Z,16.81
2023-05-09T01:24:49.401Z,16.77
2023-05-09T01:25:20.696Z,16.71
2023-05-09T01:25:38.356Z,16.74
2023-05-09T01:26:06.333Z,16.74
2023-05-09T01:26:36.315Z,16.75
2023-05-09T01:27:22.647Z,16.81
2023-05-09T01:27:59.206Z,16.83
2023-05-09T01:28:16.832Z,16.86
2023-05-09T01:29:17.326Z,16.85
2023-05-09T01:29:59.598Z,16.88
2023-05-09T01:30:13.746Z,16.91
2023-05-09T01:30:26.676Z,16.91
2023-05-09T01:30:42.541Z,16.92
2023-05-09T01:30:56.646Z,16.93
2023-05-09T01:31:09.753Z,16.93
2023-05-09T01:31:22.759Z,16.95
2023-05-09T01:31:39.390Z,16.95
2023-05-09T01:31:52.914Z,16.96
2023-05-09T01:32:09.593Z,16.98
2023-05-09T01:32:24.892Z,17.01
2023-05-09T01:32:39.249Z,16.98
2023-05-09T01:32:53.959Z,17.02
2023-05-09T01:33:08.131Z,17.04
2023-05-09T01:33:21.946Z,17.05
2023-05-09T01:33:38.348Z,17.05
2023-05-09T01:33:57.966Z,17.06
2023-05-09T01:34:11.403Z,17.04
2023-05-09T01:34:27.310Z,17.04
2023-05-09T01:34:41.038Z,17.05
2023-05-09T01:34:56.225Z,17.05
2023-05-09T01:35:12.581Z,17.04
2023-05-09T01:35:26.682Z,17.02
2023-05-09T01:35:44.335Z,17.01
2023-05-09T01:36:01.862Z,17.01
2023-05-09T01:36:17.973Z,17.03
2023-05-09T01:36:32.749Z,17.04
2023-05-09T01:36:48.742Z,17.04
2023-05-09T01:37:02.294Z,17.06
2023-05-09T01:37:16.524Z,17.05
2023-05-09T01:37:31.368Z,17.05
2023-05-09T01:37:49.001Z,17.05
2023-05-09T01:38:05.437Z,17.05
2023-05-09T01:38:23.744Z,17.05
2023-05-09T01:38:38.401Z,17.03
2023-05-09T01:38:52.293Z,17.02
2023-05-09T01:39:05.878Z,17.03
2023-05-09T01:39:19.135Z,17.03
2023-05-09T01:39:33.869Z,17.02
2023-05-09T01:39:50.679Z,17.02
2023-05-09T01:40:14.214Z,17.03
2023-05-09T01:40:30.390Z,17.01
2023-05-09T01:40:45.387Z,17.01
2023-05-09T01:40:59.873Z,16.98
2023-05-09T01:41:15.516Z,16.97
2023-05-09T01:41:32.060Z,16.97
2023-05-09T01:41:44.354Z,16.96
2023-05-09T01:41:58.038Z,16.97
2023-05-09T01:42:12.566Z,16.97
2023-05-09T01:42:27.880Z,16.95
2023-05-09T01:42:44.278Z,16.94
2023-05-09T01:43:09.951Z,16.96
2023-05-09T01:43:25.764Z,16.97
2023-05-09T01:43:38.867Z,16.96
2023-05-09T01:43:53.497Z,16.99
2023-05-09T01:44:13.409Z,17.03
2023-05-09T01:44:25.926Z,17.04
2023-05-09T01:44:40.937Z,17.05
2023-05-09T01:44:54.716Z,17.07
2023-05-09T01:45:08.291Z,17.07
2023-05-09T01:45:21.039Z,17.10
2023-05-09T01:45:34.173Z,17.09
2023-05-09T01:45:48.433Z,17.10
2023-05-09T01:46:02.298Z,17.11
2023-05-09T01:46:17.064Z,17.11
2023-05-09T01:46:30.586Z,17.14
2023-05-09T01:46:43.611Z,17.14
2023-05-09T01:46:55.851Z,17.13
2023-05-09T01:47:09.452Z,17.14
2023-05-09T01:47:22.929Z,17.15
2023-05-09T01:47:35.988Z,17.09
2023-05-09T01:47:49.104Z,17.08
2023-05-09T01:48:02.419Z,17.09
2023-05-09T01:48:15.593Z,17.10
2023-05-09T01:48:30.838Z,17.11
2023-05-09T01:48:45.313Z,17.12
2023-05-09T01:49:00.298Z,17.12
2023-05-09T01:49:13.779Z,17.13
2023-05-09T01:49:29.537Z,17.13
2023-05-09T01:49:42.809Z,17.14
2023-05-09T01:49:55.725Z,17.15
2023-05-09T01:50:11.229Z,17.09
2023-05-09T01:50:24.252Z,17.09
2023-05-09T01:50:37.692Z,17.10
2023-05-09T01:50:49.814Z,17.12
2023-05-09T01:51:02.751Z,17.11
2023-05-09T01:51:16.297Z,17.06
2023-05-09T01:51:29.593Z,17.04
2023-05-09T01:51:43.780Z,17.05
2023-05-09T01:51:57.443Z,17.05
2023-05-09T01:52:13.460Z,17.08
2023-05-09T01:52:26.356Z,17.09
2023-05-09T01:52:41.075Z,17.11
2023-05-09T01:52:56.110Z,17.09
2023-05-09T01:53:10.401Z,17.10
2023-05-09T01:53:24.159Z,17.05
2023-05-09T01:53:36.681Z,17.05
2023-05-09T01:53:51.226Z,17.07
2023-05-09T01:54:05.664Z,17.04
2023-05-09T01:54:18.715Z,17.04
2023-05-09T01:54:32.058Z,17.06
2023-05-09T01:54:45.864Z,17.07
2023-05-09T01:55:01.326Z,17.08
2023-05-09T01:55:14.613Z,17.10
2023-05-09T01:55:31.664Z,17.07
2023-05-09T01:55:44.067Z,17.10
2023-05-09T01:55:58.173Z,17.12
2023-05-09T01:56:12.646Z,17.16
2023-05-09T01:56:26.457Z,17.19
2023-05-09T01:56:42.084Z,17.16
2023-05-09T01:56:55.485Z,17.14
2023-05-09T01:57:08.890Z,17.09
2023-05-09T01:57:22.462Z,17.08
2023-05-09T01:57:36.351Z,17.10
2023-05-09T01:57:50.176Z,17.10
2023-05-09T01:58:05.428Z,17.13
2023-05-09T01:58:18.641Z,17.13
2023-05-09T01:58:33.632Z,17.13
2023-05-09T01:58:48.343Z,17.15
2023-05-09T01:59:02.194Z,17.15
2023-05-09T01:59:16.307Z,17.16
2023-05-09T01:59:29.954Z,17.16
2023-05-09T01:59:45.430Z,17.16
2023-05-09T01:59:59.009Z,17.17
2023-05-09T02:00:13.925Z,17.20
2023-05-09T02:00:27.319Z,17.22
2023-05-09T02:00:40.438Z,17.23
2023-05-09T02:00:53.057Z,17.17
2023-05-09T02:01:05.969Z,17.16
2023-05-09T02:01:19.751Z,17.16
2023-05-09T02:01:32.249Z,17.17
2023-05-09T02:01:46.861Z,17.19
2023-05-09T02:01:59.459Z,17.20
2023-05-09T02:02:12.411Z,17.21
2023-05-09T02:02:27.318Z,17.23
2023-05-09T02:02:39.965Z,17.25
2023-05-09T02:02:53.308Z,17.26
2023-05-09T02:03:06.193Z,17.27
2023-05-09T02:03:18.710Z,17.28
2023-05-09T02:03:33.947Z,17.29
2023-05-09T02:03:50.678Z,17.31
2023-05-09T02:04:04.560Z,17.32
2023-05-09T02:04:18.616Z,17.31
2023-05-09T02:04:31.006Z,17.29
2023-05-09T02:04:44.153Z,17.27
2023-05-09T02:04:57.194Z,17.27
2023-05-09T02:05:10.765Z,17.25
2023-05-09T02:05:27.297Z,17.25
2023-05-09T02:05:40.208Z,17.21
2023-05-09T02:05:52.803Z,17.16
2023-05-09T02:06:05.102Z,17.12
2023-05-09T02:06:18.539Z,17.11
2023-05-09T02:06:32.547Z,17.14
2023-05-09T02:06:49.535Z,17.12
2023-05-09T02:07:02.417Z,17.12
2023-05-09T02:07:15.040Z,17.14
2023-05-09T02:07:29.935Z,17.17
2023-05-09T02:07:42.789Z,17.19
2023-05-09T02:07:59.442Z,17.18
2023-05-09T02:08:14.125Z,17.19
2023-05-09T02:08:26.695Z,17.19
2023-05-09T02:08:38.844Z,17.21
2023-05-09T02:08:51.089Z,17.19
2023-05-09T02:09:03.482Z,17.15
2023-05-09T02:09:15.767Z,17.17
2023-05-09T02:09:27.831Z,17.17
2023-05-09T02:09:39.784Z,17.19
2023-05-09T02:09:54.007Z,17.18
2023-05-09T02:10:09.028Z,17.20
2023-05-09T02:10:22.621Z,17.20
2023-05-09T02:10:35.698Z,17.21
2023-05-09T02:10:49.265Z,17.21
2023-05-09T02:11:01.265Z,17.22
2023-05-09T02:11:13.198Z,17.21
2023-05-09T02:11:25.779Z,17.23
2023-05-09T02:11:37.717Z,17.24
2023-05-09T02:11:49.700Z,17.24
2023-05-09T02:12:01.986Z,17.26
2023-05-09T02:12:13.920Z,17.25
2023-05-09T02:12:26.736Z,17.26
2023-05-09T02:12:39.848Z,17.26
2023-05-09T02:12:52.555Z,17.27
2023-05-09T02:13:04.516Z,17.28
2023-05-09T02:13:17.072Z,17.28
2023-05-09T02:13:29.929Z,17.28
2023-05-09T02:13:41.979Z,17.28
2023-05-09T02:13:53.964Z,17.28
2023-05-09T02:14:06.294Z,17.26
2023-05-09T02:14:18.230Z,17.23
2023-05-09T02:14:31.123Z,17.26
2023-05-09T02:14:43.546Z,17.27
2023-05-09T02:14:55.570Z,17.28
2023-05-09T02:15:08.822Z,17.30
2023-05-09T02:15:21.752Z,17.30
2023-05-09T02:15:34.299Z,17.29
2023-05-09T02:15:47.089Z,17.30
2023-05-09T02:15:59.581Z,17.31
2023-05-09T02:16:12.101Z,17.30
2023-05-09T02:16:24.175Z,17.31
2023-05-09T02:16:36.307Z,17.30
2023-05-09T02:16:48.458Z,17.32
2023-05-09T02:17:06.302Z,17.33
2023-05-09T02:17:19.144Z,17.33
2023-05-09T02:17:31.326Z,17.35
2023-05-09T02:17:43.317Z,17.36
2023-05-09T02:17:55.327Z,17.38
2023-05-09T02:18:07.373Z,17.38
2023-05-09T02:18:19.282Z,17.38
2023-05-09T02:18:32.530Z,17.39
2023-05-09T02:18:44.444Z,17.36
2023-05-09T02:18:56.396Z,17.35
2023-05-09T02:19:08.324Z,17.36
2023-05-09T02:19:20.220Z,17.34
2023-05-09T02:19:35.828Z,17.38
2023-05-09T02:19:47.805Z,17.36
2023-05-09T02:19:59.866Z,17.39
2023-05-09T02:20:13.466Z,17.38
2023-05-09T02:20:25.389Z,17.39
2023-05-09T02:20:37.358Z,17.40
2023-05-09T02:20:49.354Z,17.39
2023-05-09T02:21:02.751Z,17.40
2023-05-09T02:21:14.690Z,17.39
2023-05-09T02:21:29.074Z,17.40
2023-05-09T02:21:41.352Z,17.41
2023-05-09T02:21:53.277Z,17.39
2023-05-09T02:22:05.326Z,17.40
2023-05-09T02:22:17.618Z,17.40
2023-05-09T02:22:29.568Z,17.38
2023-05-09T02:22:42.960Z,17.39
2023-05-09T02:22:54.949Z,17.39
2023-05-09T02:23:06.973Z,17.38
2023-05-09T02:23:20.150Z,17.38
2023-05-09T02:23:32.080Z,17.38
2023-05-09T02:23:44.126Z,17.37
2023-05-09T02:23:56.485Z,17.37
2023-05-09T02:24:08.467Z,17.36
2023-05-09T02:24:20.482Z,17.37
2023-05-09T02:24:34.302Z,17.38
2023-05-09T02:24:46.278Z,17.39
2023-05-09T02:24:58.264Z,17.38
2023-05-09T02:25:14.277Z,17.40
2023-05-09T02:25:26.440Z,17.41
2023-05-09T02:25:39.369Z,17.42
2023-05-09T02:25:54.099Z,17.43
2023-05-09T02:26:06.552Z,17.44
2023-05-09T02:26:19.470Z,17.45
2023-05-09T02:26:31.671Z,17.45
2023-05-09T02:26:44.053Z,17.46
2023-05-09T02:26:57.755Z,17.46
2023-05-09T02:27:11.660Z,17.46
2023-05-09T02:27:23.832Z,17.47
2023-05-09T02:27:38.665Z,17.47
2023-05-09T02:27:51.952Z,17.46
2023-05-09T02:28:04.106Z,17.41
2023-05-09T02:28:19.385Z,17.40
2023-05-09T02:28:31.669Z,17.38
2023-05-09T02:28:45.468Z,17.39
2023-05-09T02:28:58.758Z,17.38
2023-05-09T02:29:11.629Z,17.38
2023-05-09T02:29:40.426Z,17.40
2023-05-09T02:29:56.379Z,17.41
2023-05-09T02:30:11.348Z,17.41
2023-05-09T02:30:27.772Z,17.41
2023-05-09T02:30:44.175Z,17.43
2023-05-09T02:30:58.713Z,17.43
2023-05-09T02:31:13.054Z,17.42
2023-05-09T02:31:28.322Z,17.44
2023-05-09T02:31:42.266Z,17.44
2023-05-09T02:31:54.561Z,17.43
2023-05-09T02:32:09.731Z,17.41
2023-05-09T02:32:28.813Z,17.40
2023-05-09T02:32:44.100Z,17.38
2023-05-09T02:33:02.367Z,17.37
2023-05-09T02:33:14.499Z,17.36
2023-05-09T02:33:27.384Z,17.35
2023-05-09T02:33:41.346Z,17.35
2023-05-09T02:33:54.525Z,17.34
2023-05-09T02:34:07.246Z,17.35
2023-05-09T02:34:20.179Z,17.33
2023-05-09T02:34:33.136Z,17.31
2023-05-09T02:34:46.046Z,17.31
2023-05-09T02:35:00.801Z,17.30
2023-05-09T02:35:14.995Z,17.30
2023-05-09T02:35:28.820Z,17.28
2023-05-09T02:35:44.391Z,17.26
2023-05-09T02:35:57.196Z,17.23
2023-05-09T02:36:10.249Z,17.22
2023-05-09T02:36:23.314Z,17.22
2023-05-09T02:36:35.748Z,17.22
2023-05-09T02:36:47.789Z,17.21
2023-05-09T02:37:00.225Z,17.22
2023-05-09T02:37:13.638Z,17.22
2023-05-09T02:37:26.148Z,17.22
2023-05-09T02:37:40.117Z,17.23
2023-05-09T02:37:52.922Z,17.22
2023-05-09T02:38:06.343Z,17.23
2023-05-09T02:38:19.246Z,17.22
2023-05-09T02:38:31.534Z,17.22
2023-05-09T02:38:45.137Z,17.22
2023-05-09T02:38:57.092Z,17.23
2023-05-09T02:39:09.642Z,17.24
2023-05-09T02:39:21.814Z,17.25
2023-05-09T02:39:34.526Z,17.25
2023-05-09T02:39:47.285Z,17.25
2023-05-09T02:40:00.000Z,17.26
2023-05-09T02:40:13.358Z,17.26
2023-05-09T02:40:28.058Z,17.28
2023-05-09T02:40:42.846Z,17.29
2023-05-09T02:40:55.008Z,17.30
2023-05-09T02:41:07.345Z,17.30
2023-05-09T02:41:19.383Z,17.31
2023-05-09T02:41:31.672Z,17.29
2023-05-09T02:41:49.323Z,17.30
2023-05-09T02:42:10.706Z,17.30
2023-05-09T02:42:27.685Z,17.29
2023-05-09T02:42:39.648Z,17.28
2023-05-09T02:42:51.696Z,17.29
2023-05-09T02:43:04.137Z,17.29
2023-05-09T02:43:16.309Z,17.29
2023-05-09T02:43:28.218Z,17.27
2023-05-09T02:43:40.261Z,17.26
2023-05-09T02:43:52.439Z,17.26
2023-05-09T02:44:05.103Z,17.25
2023-05-09T02:44:17.015Z,17.25
2023-05-09T02:44:28.949Z,17.25
2023-05-09T02:44:40.939Z,17.22
2023-05-09T02:44:53.742Z,17.24
2023-05-09T02:45:07.120Z,17.23
2023-05-09T02:45:19.160Z,17.21
2023-05-09T02:45:32.209Z,17.21
2023-05-09T02:45:44.630Z,17.22
2023-05-09T02:45:56.645Z,17.23
2023-05-09T02:46:10.187Z,17.23
2023-05-09T02:46:22.384Z,17.24
2023-05-09T02:46:34.445Z,17.23
2023-05-09T02:46:46.710Z,17.22
2023-05-09T02:46:58.744Z,17.20
2023-05-09T02:47:11.066Z,17.19
2023-05-09T02:47:23.469Z,17.19
2023-05-09T02:47:35.469Z,17.18
2023-05-09T02:47:47.620Z,17.19
2023-05-09T02:48:00.022Z,17.17
2023-05-09T02:48:12.096Z,17.15
2023-05-09T02:48:24.603Z,17.16
2023-05-09T02:48:36.847Z,17.14
2023-05-09T02:48:49.202Z,17.12
2023-05-09T02:49:01.306Z,17.14
2023-05-09T02:49:26.748Z,17.13
2023-05-09T02:49:43.498Z,17.12
2023-05-09T02:49:55.387Z,17.05
2023-05-09T02:50:08.036Z,17.02
2023-05-09T02:50:20.068Z,16.99
2023-05-09T02:50:32.667Z,17.02
2023-05-09T02:50:45.826Z,17.02
2023-05-09T02:50:58.311Z,17.04
2023-05-09T02:51:10.275Z,17.06
2023-05-09T02:51:22.951Z,17.07
2023-05-09T02:51:34.871Z,17.08
2023-05-09T02:51:47.005Z,17.09
2023-05-09T02:51:59.053Z,17.10
2023-05-09T02:52:11.942Z,17.11
2023-05-09T02:52:23.827Z,17.14
2023-05-09T02:52:35.900Z,17.15
2023-05-09T02:52:47.893Z,17.16
2023-05-09T02:53:00.334Z,17.15
2023-05-09T02:53:12.260Z,17.16
2023-05-09T02:53:24.677Z,17.19
2023-05-09T02:53:36.575Z,17.19
2023-05-09T02:53:48.846Z,17.17
2023-05-09T02:54:00.834Z,17.19
2023-05-09T02:54:12.884Z,17.20
2023-05-09T02:54:24.878Z,17.19
2023-05-09T02:54:38.161Z,17.20
2023-05-09T02:54:50.075Z,17.21
2023-05-09T02:55:03.468Z,17.21
2023-05-09T02:55:16.014Z,17.21
2023-05-09T02:55:28.476Z,17.22
2023-05-09T02:55:40.489Z,17.23
2023-05-09T02:55:53.851Z,17.26
2023-05-09T02:56:05.930Z,17.26
2023-05-09T02:56:17.868Z,17.26
2023-05-09T02:56:29.760Z,17.28
2023-05-09T02:56:41.863Z,17.29
2023-05-09T02:56:54.017Z,17.29
2023-05-09T02:57:06.634Z,17.30
2023-05-09T02:57:18.562Z,17.29
2023-05-09T02:57:30.962Z,17.28
2023-05-09T02:57:43.707Z,17.30
2023-05-09T02:58:09.285Z,17.31
2023-05-09T02:58:25.269Z,17.33
2023-05-09T02:58:37.280Z,17.32
2023-05-09T02:58:51.450Z,17.33
2023-05-09T02:59:03.625Z,17.32
2023-05-09T02:59:16.037Z,17.33
2023-05-09T02:59:28.500Z,17.34
2023-05-09T02:59:40.457Z,17.35
2023-05-09T02:59:54.834Z,17.35
2023-05-09T03:00:10.659Z,17.34
2023-05-09T03:00:23.826Z,17.32
2023-05-09T03:00:36.034Z,17.31
2023-05-09T03:00:47.956Z,17.32
2023-05-09T03:01:00.086Z,17.33
2023-05-09T03:01:12.086Z,17.34
2023-05-09T03:01:25.358Z,17.34
2023-05-09T03:01:37.721Z,17.33
2023-05-09T03:01:49.951Z,17.35
2023-05-09T03:02:02.085Z,17.35
2023-05-09T03:02:14.141Z,17.34
2023-05-09T03:02:26.185Z,17.35
2023-05-09T03:02:38.648Z,17.37
2023-05-09T03:02:50.766Z,17.36
2023-05-09T03:03:03.476Z,17.37